createdAt,value
2019-01-23T00:00:54.171Z,86.65
2019-01-23T00:01:54.216Z,86.65
2019-01-23T00:02:54.164Z,85.70
2019-01-23T00:03:54.156Z,85.80
2019-01-23T00:04:54.130Z,85.28
2019-01-23T00:05:54.171Z,85.28
2019-01-23T00:06:54.126Z,85.17
2019-01-23T00:07:54.181Z,85.17
2019-01-23T00:08:54.087Z,85.38
2019-01-23T00:09:54.083Z,85.17
2019-01-23T00:10:54.086Z,85.13
2019-01-23T00:11:54.061Z,84.29
2019-01-23T00:12:54.048Z,85.03
2019-01-23T00:13:54.053Z,85.24
2019-01-23T00:14:54.038Z,85.35
2019-01-23T00:15:54.018Z,85.03
2019-01-23T00:16:54.010Z,85.24
2019-01-23T00:17:54.002Z,85.13
2019-01-23T00:18:54.005Z,85.13
2019-01-23T00:19:54.074Z,85.24
2019-01-23T00:20:53.992Z,84.92
2019-01-23T00:21:53.979Z,85.03
2019-01-23T00:22:54.001Z,85.03
2019-01-23T00:23:53.953Z,85.03
2019-01-23T00:24:53.923Z,84.50
2019-01-23T00:25:53.927Z,84.61
2019-01-23T00:26:53.920Z,84.50
2019-01-23T00:27:53.895Z,84.61
2019-01-23T00:28:53.924Z,85.13
2019-01-23T00:29:53.881Z,84.40
2019-01-23T00:30:53.921Z,84.71
2019-01-23T00:31:53.851Z,84.71
2019-01-23T00:32:53.845Z,84.61
2019-01-23T00:33:53.857Z,84.92
2019-01-23T00:34:53.870Z,84.50
2019-01-23T00:35:53.854Z,84.71
2019-01-23T00:36:53.802Z,84.67
2019-01-23T00:37:53.833Z,84.47
2019-01-23T00:38:53.831Z,84.15
2019-01-23T00:39:53.791Z,84.78
2019-01-23T00:40:53.790Z,84.99
2019-01-23T00:41:53.759Z,84.36
2019-01-23T00:42:53.743Z,84.36
2019-01-23T00:43:53.788Z,84.57
2019-01-23T00:44:53.850Z,84.67
2019-01-23T00:45:53.722Z,84.78
2019-01-23T00:46:53.720Z,84.67
2019-01-23T00:47:53.719Z,85.20
2019-01-23T00:48:53.764Z,85.10
2019-01-23T00:49:53.677Z,84.99
2019-01-23T00:50:53.681Z,85.10
2019-01-23T00:51:53.650Z,84.67
2019-01-23T00:52:53.640Z,84.36
2019-01-23T00:53:53.666Z,84.36
2019-01-23T00:54:53.648Z,84.57
2019-01-23T00:55:53.630Z,84.25
2019-01-23T00:56:53.598Z,84.89
2019-01-23T00:57:53.605Z,84.89
2019-01-23T00:58:53.598Z,84.57
2019-01-23T00:59:53.572Z,84.78
2019-01-23T01:00:53.601Z,84.78
2019-01-23T01:01:53.731Z,84.11
2019-01-23T01:02:53.539Z,84.01
2019-01-23T01:03:53.548Z,83.37
2019-01-23T01:04:53.523Z,83.83
2019-01-23T01:05:53.548Z,83.94
2019-01-23T01:06:53.539Z,83.37
2019-01-23T01:07:53.484Z,83.48
2019-01-23T01:08:53.507Z,83.17
2019-01-23T01:09:53.506Z,83.83
2019-01-23T01:10:53.485Z,83.80
2019-01-23T01:11:53.466Z,83.80
2019-01-23T01:12:53.436Z,83.27
2019-01-23T01:13:53.528Z,83.80
2019-01-23T01:14:53.417Z,83.73
2019-01-23T01:15:53.453Z,83.37
2019-01-23T01:16:53.395Z,83.27
2019-01-23T01:17:53.430Z,83.59
2019-01-23T01:18:53.399Z,83.17
2019-01-23T01:19:53.423Z,82.95
2019-01-23T01:20:53.358Z,83.27
2019-01-23T01:21:53.349Z,83.17
2019-01-23T01:22:53.337Z,83.17
2019-01-23T01:23:53.349Z,82.95
2019-01-23T01:24:53.316Z,83.06
2019-01-23T01:25:53.383Z,82.64
2019-01-23T01:26:53.294Z,82.64
2019-01-23T01:27:53.312Z,82.22
2019-01-23T01:28:56.039Z,82.11
2019-01-23T01:29:53.294Z,82.07
2019-01-23T01:30:53.297Z,81.55
2019-01-23T01:31:53.244Z,82.18
2019-01-23T01:32:53.237Z,81.65
2019-01-23T01:33:53.258Z,81.65
2019-01-23T01:34:53.283Z,81.87
2019-01-23T01:35:53.207Z,81.45
2019-01-23T01:36:53.195Z,81.65
2019-01-23T01:37:53.188Z,81.97
2019-01-23T01:38:53.238Z,81.97
2019-01-23T01:39:53.211Z,81.87
2019-01-23T01:40:53.210Z,81.97
2019-01-23T01:41:53.157Z,81.55
2019-01-23T01:42:53.135Z,82.07
2019-01-23T01:43:53.146Z,81.87
2019-01-23T01:44:53.144Z,81.87
2019-01-23T01:45:53.105Z,81.45
2019-01-23T01:46:53.099Z,81.24
2019-01-23T01:47:53.109Z,81.45
2019-01-23T01:48:53.124Z,81.34
2019-01-23T01:49:53.072Z,81.55
2019-01-23T01:50:53.049Z,81.24
2019-01-23T01:51:53.039Z,81.02
2019-01-23T01:52:53.061Z,81.45
2019-01-23T01:53:53.058Z,81.02
2019-01-23T01:54:53.009Z,81.45
2019-01-23T01:55:53.002Z,81.65
2019-01-23T01:56:52.990Z,81.65
2019-01-23T01:57:52.979Z,81.55
2019-01-23T01:58:52.972Z,81.97
2019-01-23T01:59:52.975Z,81.65
2019-01-23T02:00:52.948Z,82.07
2019-01-23T02:01:52.938Z,81.45
2019-01-23T02:02:52.956Z,81.24
2019-01-23T02:03:52.924Z,81.13
2019-01-23T02:04:52.931Z,81.24
2019-01-23T02:05:52.916Z,81.65
2019-01-23T02:06:52.909Z,81.13
2019-01-23T02:07:52.876Z,81.65
2019-01-23T02:08:52.868Z,81.65
2019-01-23T02:09:52.893Z,81.76
2019-01-23T02:10:52.844Z,81.13
2019-01-23T02:11:52.865Z,81.87
2019-01-23T02:12:52.829Z,81.45
2019-01-23T02:13:52.815Z,81.65
2019-01-23T02:14:53.017Z,81.87
2019-01-23T02:15:52.798Z,81.55
2019-01-23T02:16:52.783Z,82.07
2019-01-23T02:17:52.781Z,81.93
2019-01-23T02:18:52.781Z,81.62
2019-01-23T02:19:52.791Z,81.09
2019-01-23T02:20:52.779Z,81.62
2019-01-23T02:21:52.732Z,81.02
2019-01-23T02:22:52.764Z,81.20
2019-01-23T02:23:52.710Z,80.36
2019-01-23T02:24:52.699Z,79.21
2019-01-23T02:25:52.736Z,80.26
2019-01-23T02:26:52.693Z,80.15
2019-01-23T02:27:52.693Z,80.04
2019-01-23T02:28:52.658Z,80.26
2019-01-23T02:29:52.660Z,80.15
2019-01-23T02:30:52.660Z,80.46
2019-01-23T02:31:52.635Z,80.68
2019-01-23T02:32:52.681Z,81.09
2019-01-23T02:33:52.653Z,81.09
2019-01-23T02:34:52.613Z,81.30
2019-01-23T02:35:52.647Z,81.09
2019-01-23T02:36:52.584Z,81.09
2019-01-23T02:37:52.610Z,81.20
2019-01-23T02:38:52.573Z,81.41
2019-01-23T02:39:52.578Z,80.88
2019-01-23T02:40:52.534Z,80.32
2019-01-23T02:41:52.569Z,80.43
2019-01-23T02:42:52.551Z,80.43
2019-01-23T02:43:52.591Z,80.85
2019-01-23T02:44:52.496Z,80.85
2019-01-23T02:45:52.490Z,80.22
2019-01-23T02:46:52.494Z,80.00
2019-01-23T02:47:52.466Z,80.43
2019-01-23T02:48:52.458Z,80.04
2019-01-23T02:49:52.458Z,79.48
2019-01-23T02:50:52.453Z,80.32
2019-01-23T02:51:52.462Z,80.00
2019-01-23T02:52:52.424Z,80.32
2019-01-23T02:53:52.406Z,80.88
2019-01-23T02:54:52.418Z,81.48
2019-01-23T02:55:52.387Z,81.20
2019-01-23T02:56:52.665Z,80.95
2019-01-23T02:57:52.376Z,81.48
2019-01-23T02:58:52.363Z,81.30
2019-01-23T02:59:52.366Z,81.62
2019-01-23T03:00:52.330Z,81.73
2019-01-23T03:01:52.327Z,82.04
2019-01-23T03:02:52.336Z,81.83
2019-01-23T03:03:52.321Z,82.04
2019-01-23T03:04:52.327Z,82.56
2019-01-23T03:05:52.286Z,82.21
2019-01-23T03:06:52.305Z,81.93
2019-01-23T03:07:52.291Z,81.73
2019-01-23T03:08:52.260Z,81.83
2019-01-23T03:09:52.239Z,82.04
2019-01-23T03:10:52.251Z,81.93
2019-01-23T03:11:52.218Z,82.04
2019-01-23T03:12:52.248Z,81.93
2019-01-23T03:13:52.214Z,81.62
2019-01-23T03:14:52.236Z,82.04
2019-01-23T03:15:52.190Z,81.93
2019-01-23T03:16:52.169Z,81.73
2019-01-23T03:17:52.174Z,81.62
2019-01-23T03:18:52.166Z,81.41
2019-01-23T03:19:52.192Z,81.62
2019-01-23T03:20:52.169Z,81.90
2019-01-23T03:21:52.132Z,81.20
2019-01-23T03:22:52.127Z,81.48
2019-01-23T03:23:52.120Z,80.85
2019-01-23T03:24:52.087Z,81.73
2019-01-23T03:25:52.151Z,82.04
2019-01-23T03:26:52.106Z,81.51
2019-01-23T03:27:52.065Z,81.27
2019-01-23T03:28:52.088Z,82.46
2019-01-23T03:29:52.110Z,81.93
2019-01-23T03:30:52.039Z,81.51
2019-01-23T03:31:52.017Z,80.88
2019-01-23T03:32:52.007Z,81.16
2019-01-23T03:33:52.011Z,81.09
2019-01-23T03:34:52.037Z,80.95
2019-01-23T03:35:51.971Z,81.09
2019-01-23T03:36:51.961Z,81.93
2019-01-23T03:37:51.995Z,81.48
2019-01-23T03:38:51.958Z,81.20
2019-01-23T03:39:51.955Z,80.95
2019-01-23T03:40:51.973Z,80.95
2019-01-23T03:41:51.950Z,80.53
2019-01-23T03:42:51.933Z,81.73
2019-01-23T03:43:51.904Z,81.79
2019-01-23T03:44:51.945Z,81.58
2019-01-23T03:45:51.890Z,81.90
2019-01-23T03:46:51.902Z,82.00
2019-01-23T03:47:51.854Z,82.32
2019-01-23T03:48:51.844Z,83.15
2019-01-23T03:49:51.844Z,82.84
2019-01-23T03:50:51.893Z,84.00
2019-01-23T03:51:51.806Z,84.31
2019-01-23T03:52:51.833Z,84.84
2019-01-23T03:53:51.793Z,85.05
2019-01-23T03:54:51.822Z,85.19
2019-01-23T03:55:51.834Z,86.41
2019-01-23T03:56:51.767Z,85.68
2019-01-23T03:57:51.754Z,85.93
2019-01-23T03:58:51.736Z,86.41
2019-01-23T03:59:51.722Z,86.41
2019-01-23T04:00:51.758Z,86.83
2019-01-23T04:01:51.715Z,86.72
2019-01-23T04:02:51.766Z,87.77
2019-01-23T04:03:51.692Z,87.67
2019-01-23T04:04:51.704Z,87.77
2019-01-23T04:05:51.696Z,88.30
2019-01-23T04:06:51.710Z,88.30
2019-01-23T04:07:51.646Z,88.02
2019-01-23T04:08:51.664Z,88.55
2019-01-23T04:09:51.625Z,87.88
2019-01-23T04:10:51.673Z,87.67
2019-01-23T04:11:51.657Z,88.13
2019-01-23T04:12:51.596Z,88.24
2019-01-23T04:13:51.580Z,88.34
2019-01-23T04:14:51.566Z,88.38
2019-01-23T04:15:51.555Z,89.01
2019-01-23T04:16:51.561Z,89.12
2019-01-23T04:17:51.551Z,89.32
2019-01-23T04:18:51.526Z,89.54
2019-01-23T04:19:51.539Z,89.75
2019-01-23T04:20:51.549Z,89.86
2019-01-23T04:21:51.510Z,89.43
2019-01-23T04:22:51.518Z,89.32
2019-01-23T04:23:51.537Z,89.32
2019-01-23T04:24:51.475Z,89.64
2019-01-23T04:25:51.496Z,90.06
2019-01-23T04:26:51.472Z,89.96
2019-01-23T04:27:51.433Z,89.75
2019-01-23T04:28:51.501Z,89.64
2019-01-23T04:29:51.440Z,89.89
2019-01-23T04:30:51.404Z,90.53
2019-01-23T04:31:51.410Z,89.89
2019-01-23T04:32:51.449Z,91.01
2019-01-23T04:33:51.371Z,90.94
2019-01-23T04:34:51.402Z,91.33
2019-01-23T04:35:51.355Z,91.53
2019-01-23T04:36:51.382Z,91.43
2019-01-23T04:37:51.346Z,90.73
2019-01-23T04:38:51.322Z,90.94
2019-01-23T04:39:51.309Z,90.53
2019-01-23T04:40:51.336Z,90.73
2019-01-23T04:41:51.288Z,91.53
2019-01-23T04:42:51.306Z,90.94
2019-01-23T04:43:51.312Z,90.48
2019-01-23T04:44:51.344Z,90.63
2019-01-23T04:45:51.269Z,90.63
2019-01-23T04:46:51.264Z,90.84
2019-01-23T04:47:51.269Z,90.73
2019-01-23T04:48:51.253Z,90.73
2019-01-23T04:49:51.251Z,90.53
2019-01-23T04:50:51.200Z,91.36
2019-01-23T04:51:51.198Z,91.05
2019-01-23T04:52:51.223Z,91.47
2019-01-23T04:53:51.191Z,91.26
2019-01-23T04:54:51.182Z,91.22
2019-01-23T04:55:51.147Z,90.69
2019-01-23T04:56:51.148Z,90.73
2019-01-23T04:57:51.213Z,91.01
2019-01-23T04:58:51.113Z,91.43
2019-01-23T04:59:51.116Z,91.47
2019-01-23T05:00:51.134Z,91.16
2019-01-23T05:01:51.098Z,91.33
2019-01-23T05:02:51.135Z,91.58
2019-01-23T05:03:51.079Z,91.47
2019-01-23T05:04:51.062Z,91.16
2019-01-23T05:05:51.091Z,91.26
2019-01-23T05:06:51.030Z,91.58
2019-01-23T05:07:51.079Z,91.26
2019-01-23T05:08:51.026Z,90.84
2019-01-23T05:09:51.024Z,91.05
2019-01-23T05:10:51.045Z,91.05
2019-01-23T05:11:50.990Z,91.05
2019-01-23T05:12:51.015Z,90.94
2019-01-23T05:13:50.978Z,91.05
2019-01-23T05:14:50.949Z,91.16
2019-01-23T05:15:50.976Z,90.84
2019-01-23T05:16:50.961Z,91.47
2019-01-23T05:17:50.940Z,91.47
2019-01-23T05:18:50.913Z,91.36
2019-01-23T05:19:50.901Z,91.68
2019-01-23T05:20:50.893Z,91.05
2019-01-23T05:21:50.878Z,90.94
2019-01-23T05:22:50.897Z,91.26
2019-01-23T05:23:50.888Z,90.84
2019-01-23T05:24:50.891Z,91.36
2019-01-23T05:25:50.836Z,90.94
2019-01-23T05:26:50.826Z,91.53
2019-01-23T05:27:50.863Z,91.43
2019-01-23T05:28:50.852Z,91.43
2019-01-23T05:29:55.068Z,91.43
2019-01-23T05:30:50.783Z,91.53
2019-01-23T05:31:50.876Z,91.43
2019-01-23T05:32:50.788Z,91.74
2019-01-23T05:33:50.754Z,91.74
2019-01-23T05:34:50.742Z,91.53
2019-01-23T05:35:50.738Z,91.64
2019-01-23T05:36:50.728Z,91.53
2019-01-23T05:37:50.804Z,91.53
2019-01-23T05:38:50.730Z,91.64
2019-01-23T05:39:50.751Z,91.96
2019-01-23T05:40:50.702Z,91.64
2019-01-23T05:41:50.682Z,91.64
2019-01-23T05:42:50.728Z,91.64
2019-01-23T05:43:50.707Z,91.85
2019-01-23T05:44:50.638Z,91.64
2019-01-23T05:45:50.629Z,91.43
2019-01-23T05:46:50.617Z,91.85
2019-01-23T05:47:50.694Z,92.58
2019-01-23T05:48:50.621Z,92.69
2019-01-23T05:49:50.587Z,91.85
2019-01-23T05:50:50.579Z,91.96
2019-01-23T05:51:50.571Z,92.38
2019-01-23T05:52:50.567Z,91.96
2019-01-23T05:53:50.631Z,91.74
2019-01-23T05:54:50.538Z,92.38
2019-01-23T05:55:50.534Z,92.90
2019-01-23T05:56:50.604Z,92.90
2019-01-23T05:57:50.529Z,92.80
2019-01-23T05:58:50.529Z,92.27
2019-01-23T05:59:50.505Z,92.69
2019-01-23T06:00:50.488Z,92.48
2019-01-23T06:01:50.469Z,92.38
2019-01-23T06:02:50.534Z,92.58
2019-01-23T06:03:50.501Z,93.11
2019-01-23T06:04:50.457Z,92.27
2019-01-23T06:05:50.462Z,92.90
2019-01-23T06:06:50.415Z,92.16
2019-01-23T06:07:50.440Z,92.69
2019-01-23T06:08:50.412Z,92.48
2019-01-23T06:09:50.382Z,92.27
2019-01-23T06:10:50.374Z,92.38
2019-01-23T06:11:50.376Z,92.23
2019-01-23T06:12:50.351Z,92.96
2019-01-23T06:13:50.390Z,92.80
2019-01-23T06:14:50.330Z,91.85
2019-01-23T06:15:50.333Z,91.91
2019-01-23T06:16:50.307Z,91.85
2019-01-23T06:17:50.334Z,91.96
2019-01-23T06:18:50.336Z,91.91
2019-01-23T06:19:50.312Z,92.02
2019-01-23T06:20:50.268Z,91.39
2019-01-23T06:21:50.260Z,91.49
2019-01-23T06:22:50.249Z,91.49
2019-01-23T06:23:50.254Z,91.49
2019-01-23T06:24:50.241Z,91.39
2019-01-23T06:25:50.214Z,91.49
2019-01-23T06:26:50.243Z,91.60
2019-01-23T06:27:50.252Z,91.18
2019-01-23T06:28:50.208Z,91.60
2019-01-23T06:29:50.205Z,91.39
2019-01-23T06:30:50.176Z,91.39
2019-01-23T06:31:50.190Z,91.49
2019-01-23T06:32:50.141Z,91.28
2019-01-23T06:33:50.168Z,91.18
2019-01-23T06:34:50.128Z,91.39
2019-01-23T06:35:50.112Z,91.24
2019-01-23T06:36:50.102Z,91.07
2019-01-23T06:37:50.093Z,91.49
2019-01-23T06:38:50.116Z,91.39
2019-01-23T06:39:50.087Z,90.82
2019-01-23T06:40:50.066Z,90.61
2019-01-23T06:41:50.057Z,90.82
2019-01-23T06:42:50.050Z,90.92
2019-01-23T06:43:50.047Z,91.14
2019-01-23T06:44:50.045Z,90.82
2019-01-23T06:45:50.014Z,91.35
2019-01-23T06:46:50.045Z,91.14
2019-01-23T06:47:50.001Z,90.82
2019-01-23T06:48:50.016Z,90.61
2019-01-23T06:49:49.969Z,90.40
2019-01-23T06:50:49.997Z,91.24
2019-01-23T06:51:49.991Z,90.82
2019-01-23T06:52:49.945Z,91.24
2019-01-23T06:53:49.946Z,90.92
2019-01-23T06:54:49.966Z,90.61
2019-01-23T06:55:49.906Z,90.82
2019-01-23T06:56:49.921Z,91.45
2019-01-23T06:57:49.885Z,91.56
2019-01-23T06:58:49.896Z,90.82
2019-01-23T06:59:49.893Z,91.45
2019-01-23T07:00:49.878Z,91.52
2019-01-23T07:01:49.881Z,91.30
2019-01-23T07:02:49.889Z,91.20
2019-01-23T07:03:49.869Z,91.14
2019-01-23T07:04:49.879Z,91.03
2019-01-23T07:05:49.804Z,90.89
2019-01-23T07:06:49.832Z,90.78
2019-01-23T07:07:49.783Z,91.20
2019-01-23T07:08:49.806Z,91.52
2019-01-23T07:09:49.780Z,91.62
2019-01-23T07:10:49.785Z,90.57
2019-01-23T07:11:49.747Z,91.20
2019-01-23T07:12:49.763Z,91.20
2019-01-23T07:13:49.758Z,90.89
2019-01-23T07:14:49.757Z,90.57
2019-01-23T07:15:49.716Z,90.99
2019-01-23T07:16:49.694Z,90.36
2019-01-23T07:17:49.691Z,90.47
2019-01-23T07:18:49.689Z,90.57
2019-01-23T07:19:49.711Z,90.57
2019-01-23T07:20:49.689Z,90.57
2019-01-23T07:21:49.669Z,90.89
2019-01-23T07:22:49.631Z,90.67
2019-01-23T07:23:49.657Z,90.15
2019-01-23T07:24:49.621Z,89.62
2019-01-23T07:25:49.615Z,89.52
2019-01-23T07:26:50.592Z,89.42
2019-01-23T07:27:49.649Z,89.21
2019-01-23T07:28:49.567Z,89.52
2019-01-23T07:29:49.591Z,89.94
2019-01-23T07:30:49.597Z,90.05
2019-01-23T07:31:49.536Z,89.73
2019-01-23T07:32:49.596Z,89.62
2019-01-23T07:33:49.565Z,89.52
2019-01-23T07:34:49.515Z,89.94
2019-01-23T07:35:49.847Z,89.52
2019-01-23T07:36:49.507Z,89.31
2019-01-23T07:37:49.480Z,89.21
2019-01-23T07:38:49.507Z,89.21
2019-01-23T07:39:49.469Z,89.62
2019-01-23T07:40:49.518Z,89.73
2019-01-23T07:41:49.499Z,89.84
2019-01-23T07:42:49.493Z,89.94
2019-01-23T07:43:49.493Z,89.48
2019-01-23T07:44:49.428Z,89.69
2019-01-23T07:45:49.457Z,89.21
2019-01-23T07:46:49.423Z,90.00
2019-01-23T07:47:49.374Z,89.59
2019-01-23T07:48:49.370Z,89.79
2019-01-23T07:49:49.429Z,89.17
2019-01-23T07:50:49.362Z,89.17
2019-01-23T07:51:49.349Z,89.37
2019-01-23T07:52:49.319Z,90.00
2019-01-23T07:53:49.323Z,89.37
2019-01-23T07:54:49.312Z,89.69
2019-01-23T07:55:49.882Z,89.79
2019-01-23T07:56:49.299Z,90.11
2019-01-23T07:57:49.291Z,89.69
2019-01-23T07:58:49.264Z,89.90
2019-01-23T07:59:49.246Z,90.80
2019-01-23T08:00:49.289Z,91.27
2019-01-23T08:01:49.289Z,91.16
2019-01-23T08:02:49.216Z,90.53
2019-01-23T08:03:49.258Z,89.90
2019-01-23T08:04:49.196Z,90.22
2019-01-23T08:05:49.260Z,90.00
2019-01-23T08:06:49.180Z,89.17
2019-01-23T08:07:49.183Z,88.92
2019-01-23T08:08:49.156Z,88.29
2019-01-23T08:09:49.159Z,88.92
2019-01-23T08:10:49.178Z,88.81
2019-01-23T08:11:49.141Z,88.92
2019-01-23T08:12:49.124Z,88.92
2019-01-23T08:13:49.134Z,88.18
2019-01-23T08:14:49.142Z,87.97
2019-01-23T08:15:49.309Z,87.66
2019-01-23T08:16:49.118Z,88.71
2019-01-23T08:17:49.064Z,87.76
2019-01-23T08:18:49.098Z,88.18
2019-01-23T08:19:49.069Z,88.60
2019-01-23T08:20:49.053Z,88.60
2019-01-23T08:21:49.057Z,88.18
2019-01-23T08:22:49.032Z,87.83
2019-01-23T08:23:49.045Z,88.14
2019-01-23T08:24:49.031Z,87.87
2019-01-23T08:25:48.981Z,88.14
2019-01-23T08:26:48.989Z,87.93
2019-01-23T08:27:48.960Z,88.04
2019-01-23T08:28:48.967Z,87.09
2019-01-23T08:29:48.963Z,87.72
2019-01-23T08:30:48.942Z,88.04
2019-01-23T08:31:48.976Z,87.62
2019-01-23T08:32:48.915Z,88.04
2019-01-23T08:33:48.975Z,88.14
2019-01-23T08:34:48.916Z,88.62
2019-01-23T08:35:48.886Z,87.83
2019-01-23T08:36:48.947Z,87.72
2019-01-23T08:37:48.931Z,87.58
2019-01-23T08:38:48.846Z,88.31
2019-01-23T08:39:50.509Z,87.47
2019-01-23T08:40:48.868Z,87.16
2019-01-23T08:41:48.870Z,87.79
2019-01-23T08:42:49.575Z,87.16
2019-01-23T08:43:48.794Z,87.05
2019-01-23T08:44:48.788Z,86.74
2019-01-23T08:45:48.779Z,86.43
2019-01-23T08:46:48.798Z,86.63
2019-01-23T08:47:48.755Z,87.37
2019-01-23T08:48:48.797Z,87.05
2019-01-23T08:49:48.736Z,87.37
2019-01-23T08:50:48.756Z,87.16
2019-01-23T08:51:48.729Z,86.85
2019-01-23T08:52:48.755Z,86.95
2019-01-23T08:53:48.745Z,86.85
2019-01-23T08:54:48.692Z,87.51
2019-01-23T08:55:53.487Z,87.51
2019-01-23T08:56:49.697Z,87.37
2019-01-23T08:57:48.650Z,87.62
2019-01-23T08:58:48.646Z,87.79
2019-01-23T08:59:48.726Z,87.26
2019-01-23T09:00:48.640Z,87.68
2019-01-23T09:01:48.636Z,87.16
2019-01-23T09:02:48.598Z,87.05
2019-01-23T09:03:48.619Z,87.05
2019-01-23T09:04:48.636Z,86.74
2019-01-23T09:05:48.579Z,86.53
2019-01-23T09:06:48.611Z,86.95
2019-01-23T09:07:48.564Z,86.95
2019-01-23T09:08:48.536Z,86.63
2019-01-23T09:09:48.528Z,86.53
2019-01-23T09:10:48.519Z,86.70
2019-01-23T09:11:48.525Z,86.38
2019-01-23T09:12:48.511Z,86.22
2019-01-23T09:13:48.544Z,86.22
2019-01-23T09:14:48.495Z,86.22
2019-01-23T09:15:48.660Z,86.22
2019-01-23T09:16:48.492Z,86.63
2019-01-23T09:17:48.856Z,86.53
2019-01-23T09:18:48.433Z,87.47
2019-01-23T09:19:48.428Z,86.85
2019-01-23T09:20:49.278Z,86.32
2019-01-23T09:21:48.439Z,86.22
2019-01-23T09:22:48.486Z,86.11
2019-01-23T09:23:48.389Z,85.75
2019-01-23T09:24:48.417Z,86.22
2019-01-23T09:25:50.111Z,86.49
2019-01-23T09:26:48.355Z,86.22
2019-01-23T09:27:48.363Z,86.28
2019-01-23T09:28:48.457Z,85.44
2019-01-23T09:29:48.318Z,85.48
2019-01-23T09:30:52.589Z,86.18
2019-01-23T09:31:49.331Z,86.18
2019-01-23T09:32:48.346Z,86.38
2019-01-23T09:33:48.279Z,88.27
2019-01-23T09:34:48.323Z,88.69
2019-01-23T09:35:48.291Z,89.11
2019-01-23T09:36:48.308Z,89.73
2019-01-23T09:37:48.281Z,90.78
2019-01-23T09:38:48.263Z,91.31
2019-01-23T09:39:48.244Z,91.83
2019-01-23T09:40:48.267Z,92.40
2019-01-23T09:41:48.315Z,92.50
2019-01-23T09:42:48.300Z,92.71
2019-01-23T09:43:48.229Z,92.19
2019-01-23T09:44:48.198Z,92.40
2019-01-23T09:45:48.230Z,92.08
2019-01-23T09:46:48.145Z,92.29
2019-01-23T09:47:48.229Z,92.46
2019-01-23T09:48:48.179Z,92.25
2019-01-23T09:49:48.177Z,92.04
2019-01-23T09:50:48.313Z,91.62
2019-01-23T09:51:48.125Z,91.83
2019-01-23T09:52:48.190Z,92.25
2019-01-23T09:53:48.128Z,91.89
2019-01-23T09:54:48.172Z,91.31
2019-01-23T09:55:48.114Z,91.69
2019-01-23T09:56:48.153Z,90.84
2019-01-23T09:57:48.362Z,89.80
2019-01-23T09:58:48.022Z,89.80
2019-01-23T09:59:48.180Z,89.53
2019-01-23T10:00:48.026Z,89.95
2019-01-23T10:01:48.042Z,90.43
2019-01-23T10:02:48.387Z,91.09
2019-01-23T10:03:48.085Z,91.16
2019-01-23T10:04:47.964Z,91.58
2019-01-23T10:05:48.036Z,91.43
2019-01-23T10:06:48.125Z,90.81
2019-01-23T10:07:48.162Z,90.74
2019-01-23T10:08:48.848Z,90.95
2019-01-23T10:09:47.971Z,91.47
2019-01-23T10:10:47.907Z,91.89
2019-01-23T10:11:47.890Z,92.31
2019-01-23T10:12:47.880Z,91.75
2019-01-23T10:13:47.890Z,91.43
2019-01-23T10:14:47.931Z,91.54
2019-01-23T10:15:47.909Z,90.81
2019-01-23T10:16:47.848Z,91.02
2019-01-23T10:17:47.854Z,90.28
2019-01-23T10:18:47.933Z,89.76
2019-01-23T10:19:47.842Z,90.18
2019-01-23T10:20:47.808Z,90.18
2019-01-23T10:21:47.782Z,90.59
2019-01-23T10:22:47.829Z,90.66
2019-01-23T10:23:47.803Z,90.56
2019-01-23T10:24:47.753Z,90.56
2019-01-23T10:25:47.773Z,90.62
2019-01-23T10:26:47.838Z,90.52
2019-01-23T10:27:47.746Z,89.15
2019-01-23T10:28:47.781Z,89.22
2019-01-23T10:29:47.701Z,89.32
2019-01-23T10:30:47.689Z,89.01
2019-01-23T10:31:47.708Z,88.70
2019-01-23T10:32:47.678Z,88.28
2019-01-23T10:33:47.696Z,88.34
2019-01-23T10:34:47.648Z,87.61
2019-01-23T10:35:47.638Z,87.51
2019-01-23T10:36:47.705Z,87.93
2019-01-23T10:37:47.672Z,88.03
2019-01-23T10:38:47.858Z,87.19
2019-01-23T10:39:47.666Z,87.61
2019-01-23T10:40:47.629Z,88.34
2019-01-23T10:41:47.574Z,88.30
2019-01-23T10:42:47.645Z,87.88
2019-01-23T10:43:48.337Z,88.45
2019-01-23T10:44:47.545Z,87.51
2019-01-23T10:45:47.553Z,87.30
2019-01-23T10:46:47.598Z,88.55
2019-01-23T10:47:47.513Z,88.34
2019-01-23T10:48:47.534Z,87.96
2019-01-23T10:49:47.711Z,88.59
2019-01-23T10:50:47.668Z,89.81
2019-01-23T10:51:47.966Z,88.65
2019-01-23T10:52:47.752Z,89.18
2019-01-23T10:53:47.776Z,89.14
2019-01-23T10:54:48.758Z,89.24
2019-01-23T10:55:47.656Z,88.72
2019-01-23T10:56:48.335Z,88.41
2019-01-23T10:57:47.975Z,87.78
2019-01-23T10:58:48.303Z,88.30
2019-01-23T10:59:48.483Z,87.71
2019-01-23T11:00:47.446Z,89.39
2019-01-23T11:01:47.714Z,89.03
2019-01-23T11:02:47.904Z,88.51
2019-01-23T11:03:48.236Z,88.09
2019-01-23T11:04:47.755Z,88.20
2019-01-23T11:05:47.438Z,88.30
2019-01-23T11:06:47.327Z,87.93
2019-01-23T11:07:47.566Z,88.55
2019-01-23T11:08:48.864Z,89.18
2019-01-23T11:09:47.655Z,89.59
2019-01-23T11:10:47.283Z,89.45
2019-01-23T11:11:47.867Z,89.07
2019-01-23T11:12:48.300Z,88.30
2019-01-23T11:13:47.259Z,88.62
2019-01-23T11:14:47.469Z,88.20
2019-01-23T11:15:47.332Z,87.57
2019-01-23T11:16:47.224Z,87.26
2019-01-23T11:17:48.153Z,87.82
2019-01-23T11:18:49.815Z,87.78
2019-01-23T11:19:47.291Z,87.71
2019-01-23T11:20:47.256Z,88.28
2019-01-23T11:21:47.750Z,89.39
2019-01-23T11:22:47.182Z,89.39
2019-01-23T11:23:49.163Z,89.70
2019-01-23T11:24:47.641Z,89.64
2019-01-23T11:25:48.035Z,89.49
2019-01-23T11:26:47.208Z,89.11
2019-01-23T11:27:47.524Z,89.89
2019-01-23T11:28:47.157Z,90.31
2019-01-23T11:29:50.318Z,90.41
2019-01-23T11:30:48.230Z,90.93
2019-01-23T11:31:48.707Z,90.16
2019-01-23T11:32:48.261Z,90.89
2019-01-23T11:33:47.549Z,90.47
2019-01-23T11:34:47.872Z,90.26
2019-01-23T11:35:47.939Z,91.06
2019-01-23T11:36:47.947Z,89.95
2019-01-23T11:37:47.049Z,89.64
2019-01-23T11:38:47.334Z,89.49
2019-01-23T11:39:47.482Z,89.28
2019-01-23T11:40:47.275Z,90.01
2019-01-23T11:41:48.458Z,90.95
2019-01-23T11:42:47.161Z,90.50
2019-01-23T11:43:47.070Z,89.66
2019-01-23T11:44:48.417Z,89.56
2019-01-23T11:45:48.098Z,89.45
2019-01-23T11:46:46.903Z,88.76
2019-01-23T11:47:49.079Z,89.49
2019-01-23T11:48:46.921Z,89.39
2019-01-23T11:49:47.410Z,90.85
2019-01-23T11:50:47.043Z,90.43
2019-01-23T11:51:48.213Z,89.91
2019-01-23T11:52:47.871Z,89.87
2019-01-23T11:53:48.141Z,89.45
2019-01-23T11:54:47.664Z,89.14
2019-01-23T11:55:46.836Z,89.34
2019-01-23T11:56:47.869Z,88.89
2019-01-23T11:57:46.875Z,89.20
2019-01-23T11:58:47.857Z,89.68
2019-01-23T11:59:46.973Z,90.20
2019-01-23T12:00:46.933Z,90.62
2019-01-23T12:01:47.561Z,88.57
2019-01-23T12:02:50.243Z,88.78
2019-01-23T12:03:46.729Z,89.10
2019-01-23T12:04:47.739Z,89.72
2019-01-23T12:05:47.208Z,89.31
2019-01-23T12:06:46.843Z,88.89
2019-01-23T12:07:48.258Z,88.57
2019-01-23T12:08:47.339Z,88.99
2019-01-23T12:09:46.797Z,88.99
2019-01-23T12:10:46.755Z,88.72
2019-01-23T12:11:46.661Z,88.89
2019-01-23T12:12:47.446Z,88.93
2019-01-23T12:13:46.731Z,88.62
2019-01-23T12:14:47.904Z,89.45
2019-01-23T12:15:46.620Z,90.08
2019-01-23T12:16:46.799Z,90.08
2019-01-23T12:17:46.721Z,89.14
2019-01-23T12:18:47.016Z,89.10
2019-01-23T12:19:48.414Z,89.66
2019-01-23T12:20:47.668Z,88.37
2019-01-23T12:21:46.962Z,88.30
2019-01-23T12:22:48.207Z,88.57
2019-01-23T12:23:58.042Z,88.57
2019-01-23T12:24:47.619Z,89.34
2019-01-23T12:26:07.949Z,88.57
2019-01-23T12:26:46.527Z,88.47
2019-01-23T12:27:49.225Z,88.64
2019-01-23T12:28:47.390Z,88.53
2019-01-23T12:29:50.949Z,88.22
2019-01-23T12:30:46.538Z,87.49
2019-01-23T12:31:47.321Z,87.39
2019-01-23T12:32:47.349Z,86.97
2019-01-23T12:33:46.458Z,86.97
2019-01-23T12:34:48.668Z,87.55
2019-01-23T12:35:47.434Z,87.14
2019-01-23T12:36:46.446Z,86.10
2019-01-23T12:37:46.871Z,86.51
2019-01-23T12:38:47.906Z,86.10
2019-01-23T12:39:47.582Z,86.20
2019-01-23T12:40:51.484Z,86.16
2019-01-23T12:41:47.654Z,86.30
2019-01-23T12:42:46.715Z,86.61
2019-01-23T12:43:46.592Z,85.99
2019-01-23T12:44:46.295Z,86.47
2019-01-23T12:45:46.366Z,86.20
2019-01-23T12:46:46.420Z,85.02
2019-01-23T12:47:48.193Z,85.96
2019-01-23T12:48:47.309Z,85.74
2019-01-23T12:49:50.404Z,85.02
2019-01-23T12:50:48.914Z,84.39
2019-01-23T12:51:46.252Z,84.70
2019-01-23T12:52:47.027Z,84.81